createdAt,value
2018-11-26T00:08:57.672Z,1006.25
2018-11-26T00:09:57.676Z,1006.30
2018-11-26T00:10:57.971Z,1006.26
2018-11-26T00:11:57.888Z,1006.27
2018-11-26T00:12:57.586Z,1006.27
2018-11-26T00:13:57.850Z,1006.29
2018-11-26T00:14:57.549Z,1006.30
2018-11-26T00:15:57.473Z,1006.26
2018-11-26T00:16:58.250Z,1006.26
2018-11-26T00:17:57.440Z,1006.27
2018-11-26T00:18:57.469Z,1006.26
2018-11-26T00:19:57.662Z,1006.24
2018-11-26T00:20:57.485Z,1006.25
2018-11-26T00:21:57.315Z,1006.24
2018-11-26T00:22:57.314Z,1006.22
2018-11-26T00:26:57.510Z,1006.24
2018-11-26T00:59:56.556Z,1006.15
2018-11-26T01:00:56.422Z,1006.14
2018-11-26T01:01:56.795Z,1006.12
2018-11-26T01:05:56.408Z,1006.07
2018-11-26T01:07:56.665Z,1006.08
2018-11-26T01:08:56.265Z,1006.05
2018-11-26T01:09:56.715Z,1006.04
2018-11-26T01:10:56.182Z,1006.03
2018-11-26T01:11:56.387Z,1006.06
2018-11-26T01:12:56.194Z,1006.05
2018-11-26T01:13:56.934Z,1006.10
2018-11-26T01:14:56.102Z,1006.13
2018-11-26T01:15:56.048Z,1006.14
2018-11-26T01:16:56.042Z,1006.10
2018-11-26T01:17:56.032Z,1006.09
2018-11-26T01:18:56.038Z,1006.12
2018-11-26T01:19:56.263Z,1006.11
2018-11-26T01:20:55.977Z,1006.12
2018-11-26T01:21:55.948Z,1006.10
2018-11-26T02:09:54.994Z,1006.15
2018-11-26T02:10:54.686Z,1006.17
2018-11-26T02:15:20.832Z,1006.13
2018-11-26T02:17:54.876Z,1006.14
2018-11-26T02:18:54.593Z,1006.15
2018-11-26T02:19:54.669Z,1006.15
2018-11-26T02:20:54.567Z,1006.13
2018-11-26T02:21:54.533Z,1006.13
2018-11-26T02:30:54.793Z,1006.23
2018-11-26T02:31:54.612Z,1006.23
2018-11-26T02:32:54.278Z,1006.24
2018-11-26T02:33:54.254Z,1006.23
2018-11-26T02:42:53.963Z,1006.12
2018-11-26T02:43:54.560Z,1006.20
2018-11-26T02:44:54.281Z,1006.18
2018-11-26T02:45:53.997Z,1006.23
2018-11-26T02:46:54.638Z,1006.19
2018-11-26T02:47:53.912Z,1006.21
2018-11-26T02:49:54.157Z,1006.18
2018-11-26T02:50:53.937Z,1006.21
2018-11-26T02:51:53.763Z,1006.17
2018-11-26T02:52:53.778Z,1006.15
2018-11-26T02:53:54.178Z,1006.11
2018-11-26T02:54:54.148Z,1006.13
2018-11-26T02:55:54.138Z,1006.13
2018-11-26T02:56:53.772Z,1006.12
2018-11-26T02:57:54.107Z,1006.10
2018-11-26T02:58:53.547Z,1006.11
2018-11-26T02:59:53.653Z,1006.10
2018-11-26T03:00:53.612Z,1006.13
2018-11-26T03:01:53.873Z,1006.06
2018-11-26T03:02:53.600Z,1006.07
2018-11-26T03:03:53.519Z,1006.07
2018-11-26T03:04:53.577Z,1006.06
2018-11-26T03:05:53.720Z,1006.08
2018-11-26T03:06:53.426Z,1006.06
2018-11-26T03:07:53.746Z,1006.08
2018-11-26T03:08:53.393Z,1006.07
2018-11-26T03:09:53.976Z,1006.10
2018-11-26T03:10:53.360Z,1006.11
2018-11-26T03:11:53.656Z,1006.12
2018-11-26T03:12:53.405Z,1006.12
2018-11-26T03:13:53.294Z,1006.19
2018-11-26T03:14:54.201Z,1006.18
2018-11-26T03:15:53.236Z,1006.15
2018-11-26T03:17:53.232Z,1006.18
2018-11-26T03:18:53.263Z,1006.19
2018-11-26T03:19:53.129Z,1006.18
2018-11-26T03:20:53.132Z,1006.17
2018-11-26T03:21:53.337Z,1006.18
2018-11-26T03:22:53.102Z,1006.13
2018-11-26T03:23:53.044Z,1006.15
2018-11-26T03:24:53.009Z,1006.17
2018-11-26T03:25:57.972Z,1006.16
2018-11-26T03:26:52.903Z,1006.16
2018-11-26T03:27:52.930Z,1006.15
2018-11-26T03:28:53.168Z,1006.15
2018-11-26T03:29:52.892Z,1006.17
2018-11-26T03:30:52.832Z,1006.18
2018-11-26T03:31:53.705Z,1006.18
2018-11-26T03:32:52.933Z,1006.18
2018-11-26T03:33:52.804Z,1006.20
2018-11-26T03:34:52.754Z,1006.22
2018-11-26T03:35:53.126Z,1006.22
2018-11-26T03:36:52.737Z,1006.26
2018-11-26T03:37:52.767Z,1006.25
2018-11-26T03:38:52.788Z,1006.30
2018-11-26T03:40:52.601Z,1006.32
2018-11-26T03:41:52.511Z,1006.35
2018-11-26T03:42:52.913Z,1006.36
2018-11-26T03:43:52.633Z,1006.36
2018-11-26T03:58:52.265Z,1006.43
2018-11-26T03:59:52.505Z,1006.47
2018-11-26T04:00:52.084Z,1006.44
2018-11-26T04:01:52.361Z,1006.47
2018-11-26T04:02:52.846Z,1006.49
2018-11-26T04:04:52.577Z,1006.48
2018-11-26T04:07:52.095Z,1006.42
2018-11-26T04:08:52.373Z,1006.47
2018-11-26T04:09:52.068Z,1006.44
2018-11-26T04:10:51.877Z,1006.42
2018-11-26T04:11:52.163Z,1006.44
2018-11-26T04:13:51.778Z,1006.47
2018-11-26T04:14:52.112Z,1006.48
2018-11-26T04:15:51.752Z,1006.45
2018-11-26T04:21:51.650Z,1006.43
2018-11-26T04:22:51.793Z,1006.46
2018-11-26T04:24:51.481Z,1006.44
2018-11-26T04:25:51.436Z,1006.43
2018-11-26T04:26:51.709Z,1006.43
2018-11-26T04:27:51.390Z,1006.44
2018-11-26T04:28:51.475Z,1006.43
2018-11-26T04:29:51.424Z,1006.43
2018-11-26T04:30:51.350Z,1006.42
2018-11-26T04:31:51.328Z,1006.46
2018-11-26T04:32:51.409Z,1006.44
2018-11-26T04:33:51.582Z,1006.48
2018-11-26T04:34:51.346Z,1006.50
2018-11-26T04:35:51.280Z,1006.48
2018-11-26T04:36:51.404Z,1006.51
2018-11-26T04:37:51.236Z,1006.49
2018-11-26T04:38:51.215Z,1006.50
2018-11-26T04:39:51.183Z,1006.49
2018-11-26T04:40:51.397Z,1006.44
2018-11-26T04:41:51.101Z,1006.50
2018-11-26T04:42:51.007Z,1006.47
2018-11-26T04:43:50.991Z,1006.48
2018-11-26T04:44:51.174Z,1006.46
2018-11-26T04:45:51.039Z,1006.46
2018-11-26T04:46:50.956Z,1006.46
2018-11-26T04:47:51.307Z,1006.46
2018-11-26T04:48:51.204Z,1006.47
2018-11-26T04:49:50.862Z,1006.50
2018-11-26T04:50:50.900Z,1006.48
2018-11-26T04:51:50.821Z,1006.49
2018-11-26T04:52:50.863Z,1006.54
2018-11-26T04:53:50.795Z,1006.53
2018-11-26T04:54:51.484Z,1006.54
2018-11-26T04:55:50.773Z,1006.54
2018-11-26T04:56:50.823Z,1006.52
2018-11-26T04:57:50.797Z,1006.54
2018-11-26T04:58:50.959Z,1006.55
2018-11-26T04:59:50.607Z,1006.51
2018-11-26T05:00:50.716Z,1006.53
2018-11-26T05:01:51.012Z,1006.52
2018-11-26T05:02:50.651Z,1006.54
2018-11-26T05:03:50.613Z,1006.52
2018-11-26T05:04:50.519Z,1006.57
2018-11-26T05:05:50.525Z,1006.52
2018-11-26T05:06:50.481Z,1006.57
2018-11-26T05:08:51.368Z,1006.61
2018-11-26T05:09:50.576Z,1006.58
2018-11-26T05:10:51.216Z,1006.62
2018-11-26T05:11:50.531Z,1006.57
2018-11-26T05:15:50.546Z,1006.57
2018-11-26T05:16:50.219Z,1006.61
2018-11-26T05:17:50.279Z,1006.57
2018-11-26T05:18:50.341Z,1006.58
2018-11-26T05:19:50.302Z,1006.62
2018-11-26T05:20:50.281Z,1006.63
2018-11-26T05:21:50.594Z,1006.60
2018-11-26T05:22:50.155Z,1006.60
2018-11-26T05:23:49.988Z,1006.56
2018-11-26T05:24:49.996Z,1006.59
2018-11-26T05:25:49.961Z,1006.58
2018-11-26T05:26:49.961Z,1006.56
2018-11-26T05:27:50.283Z,1006.57
2018-11-26T05:28:49.929Z,1006.59
2018-11-26T05:29:49.828Z,1006.56
2018-11-26T05:30:49.936Z,1006.58
2018-11-26T05:32:50.563Z,1006.53
2018-11-26T05:33:49.905Z,1006.58
2018-11-26T05:34:50.267Z,1006.57
2018-11-26T05:41:49.928Z,1006.56
2018-11-26T05:42:49.548Z,1006.53
2018-11-26T05:43:56.288Z,1006.54
2018-11-26T05:44:49.745Z,1006.52
2018-11-26T05:53:49.736Z,1006.57
2018-11-26T05:54:49.258Z,1006.60
2018-11-26T05:55:49.427Z,1006.56
2018-11-26T05:56:49.190Z,1006.55
2018-11-26T05:57:49.123Z,1006.59
2018-11-26T05:58:49.216Z,1006.52
2018-11-26T05:59:49.169Z,1006.57
2018-11-26T06:00:49.826Z,1006.56
2018-11-26T06:02:49.909Z,1006.56
2018-11-26T06:03:49.973Z,1006.55
2018-11-26T06:04:48.990Z,1006.57
2018-11-26T06:05:48.949Z,1006.53
2018-11-26T06:07:49.386Z,1006.59
2018-11-26T06:08:48.859Z,1006.58
2018-11-26T06:11:48.897Z,1006.61
2018-11-26T06:12:50.154Z,1006.55
2018-11-26T06:13:51.900Z,1006.56
2018-11-26T06:15:51.025Z,1006.62
2018-11-26T06:16:53.808Z,1006.59
2018-11-26T06:18:48.630Z,1006.62
2018-11-26T06:19:49.539Z,1006.65
2018-11-26T06:20:48.660Z,1006.66
2018-11-26T06:21:48.602Z,1006.65
2018-11-26T06:46:48.312Z,1006.88
2018-11-26T06:48:47.914Z,1006.85
2018-11-26T06:50:48.285Z,1006.84
2018-11-26T06:51:47.678Z,1006.84
2018-11-26T07:14:47.668Z,1006.77
2018-11-26T07:15:47.113Z,1006.77
2018-11-26T07:24:47.140Z,1006.77
2018-11-26T07:26:46.756Z,1006.77
2018-11-26T10:34:42.895Z,1007.19
2018-11-26T10:35:43.674Z,1007.16
2018-11-26T10:37:42.351Z,1007.18
2018-11-26T10:45:42.459Z,1007.15
2018-11-26T10:46:43.202Z,1007.22
2018-11-26T11:33:42.175Z,1007.20
2018-11-26T11:54:40.941Z,1007.16
2018-11-26T11:55:40.693Z,1007.19
2018-11-26T11:56:40.576Z,1007.18
2018-11-26T11:58:40.973Z,1007.20
2018-11-26T11:59:41.948Z,1007.25
2018-11-26T12:01:40.818Z,1007.25
2018-11-26T12:02:40.895Z,1007.25
2018-11-26T12:03:44.398Z,1007.24
2018-11-26T12:15:40.587Z,1007.13
2018-11-26T12:16:40.059Z,1007.16
2018-11-26T12:17:40.741Z,1007.15
2018-11-26T12:18:40.084Z,1007.15
2018-11-26T12:19:40.080Z,1007.14
2018-11-26T12:21:40.451Z,1007.16
2018-11-26T12:22:39.918Z,1007.14
2018-11-26T12:23:39.950Z,1007.15
2018-11-26T12:24:41.052Z,1007.13
2018-11-26T12:27:41.202Z,1007.14
2018-11-26T12:30:40.835Z,1007.12
2018-11-26T12:33:41.492Z,1007.16
2018-11-26T12:34:39.912Z,1007.12
2018-11-26T12:35:39.876Z,1007.16
2018-11-26T12:38:40.293Z,1007.08
2018-11-26T12:40:40.286Z,1007.09
2018-11-26T12:47:39.956Z,1007.09
2018-11-26T12:48:39.694Z,1007.08
2018-11-26T12:49:39.739Z,1007.09
2018-11-26T12:50:40.079Z,1007.09
2018-11-26T12:51:39.589Z,1007.11
2018-11-26T12:53:40.110Z,1007.06
2018-11-26T12:54:48.791Z,1007.07
2018-11-26T12:55:40.266Z,1007.07
2018-11-26T12:56:41.011Z,1007.03
2018-11-26T12:57:46.172Z,1007.00
2018-11-26T12:58:40.079Z,1007.04
2018-11-26T12:59:39.391Z,1007.04
2018-11-26T13:00:39.435Z,1007.06
2018-11-26T13:01:39.021Z,1007.08
2018-11-26T13:02:39.054Z,1007.06
2018-11-26T13:03:39.008Z,1007.09
2018-11-26T13:04:39.063Z,1007.08
2018-11-26T13:05:39.329Z,1007.10
2018-11-26T13:06:39.012Z,1007.11
2018-11-26T13:07:39.296Z,1007.07
2018-11-26T13:08:38.982Z,1007.09
2018-11-26T13:55:38.274Z,1007.12
2018-11-26T13:56:38.152Z,1007.09
2018-11-26T13:57:37.796Z,1007.08
2018-11-26T14:10:37.975Z,1007.17
2018-11-26T14:11:37.738Z,1007.19
2018-11-26T14:12:37.622Z,1007.20
2018-11-26T14:13:38.110Z,1007.21
2018-11-26T14:14:38.384Z,1007.19
2018-11-26T14:15:37.519Z,1007.17
2018-11-26T14:16:37.791Z,1007.17
2018-11-26T14:17:37.781Z,1007.13
2018-11-26T14:18:37.502Z,1007.16
2018-11-26T14:19:37.561Z,1007.20
2018-11-26T14:20:37.466Z,1007.21
2018-11-26T14:21:37.347Z,1007.18
2018-11-26T14:22:37.402Z,1007.19
2018-11-26T14:23:37.641Z,1007.22
2018-11-26T14:24:37.625Z,1007.21
2018-11-26T14:25:37.257Z,1007.21
2018-11-26T14:29:37.195Z,1007.19
2018-11-26T14:30:37.167Z,1007.23
2018-11-26T14:33:37.856Z,1007.19
2018-11-26T14:34:37.193Z,1007.23
2018-11-26T14:36:37.056Z,1007.30
2018-11-26T14:44:36.945Z,1007.32
2018-11-26T14:52:37.383Z,1007.33
2018-11-26T14:53:36.823Z,1007.35
2018-11-26T14:56:37.039Z,1007.36
2018-11-26T14:57:37.170Z,1007.33
2018-11-26T14:59:37.824Z,1007.33
2018-11-26T15:00:37.677Z,1007.36
2018-11-26T15:02:37.452Z,1007.33
2018-11-26T15:03:37.282Z,1007.35
2018-11-26T15:04:37.531Z,1007.34
2018-11-26T15:06:36.691Z,1007.36
2018-11-26T15:07:36.379Z,1007.38
2018-11-26T15:12:37.702Z,1007.43
2018-11-26T15:15:36.079Z,1007.38
2018-11-26T15:16:36.031Z,1007.36
2018-11-26T15:18:36.099Z,1007.35
2018-11-26T15:19:36.667Z,1007.36
2018-11-26T15:37:36.035Z,1007.63
2018-11-26T15:48:35.874Z,1007.72
2018-11-26T15:50:35.430Z,1007.72
2018-11-26T15:52:36.371Z,1007.73
2018-11-26T15:53:35.236Z,1007.72
2018-11-26T15:55:36.303Z,1007.71
2018-11-26T16:09:35.264Z,1007.80
2018-11-26T16:12:35.095Z,1007.80
2018-11-26T16:13:35.737Z,1007.82
2018-11-26T16:14:35.156Z,1007.78
2018-11-26T16:15:34.985Z,1007.76
2018-11-26T16:16:36.313Z,1007.79
2018-11-26T16:17:35.170Z,1007.77
2018-11-26T16:18:34.775Z,1007.79
2018-11-26T16:19:34.754Z,1007.76
2018-11-26T16:27:35.054Z,1007.93
2018-11-26T16:28:34.540Z,1007.89
2018-11-26T16:29:34.547Z,1007.93
2018-11-26T16:53:35.816Z,1008.15
2018-11-26T16:54:34.042Z,1008.19
2018-11-26T16:55:33.933Z,1008.21
2018-11-26T16:56:33.784Z,1008.21
2018-11-26T17:01:34.515Z,1008.23
2018-11-26T17:15:34.008Z,1008.35
2018-11-26T17:16:33.239Z,1008.35
2018-11-26T17:34:33.409Z,1008.57
2018-11-26T17:35:33.020Z,1008.55
2018-11-26T17:36:33.491Z,1008.62
2018-11-26T17:37:32.798Z,1008.63
2018-11-26T17:38:32.789Z,1008.63
2018-11-26T17:39:32.704Z,1008.64
2018-11-26T17:40:32.744Z,1008.67
2018-11-26T17:41:32.973Z,1008.69
2018-11-26T17:42:32.752Z,1008.70
2018-11-26T17:43:32.700Z,1008.71
2018-11-26T17:45:33.725Z,1008.71
2018-11-26T17:48:32.849Z,1008.71
2018-11-26T17:49:32.464Z,1008.71
2018-11-26T17:52:32.395Z,1008.70
2018-11-26T17:53:32.390Z,1008.70
2018-11-26T17:54:32.709Z,1008.71
2018-11-26T17:55:32.411Z,1008.69
2018-11-26T17:56:32.402Z,1008.70
2018-11-26T18:05:33.011Z,1008.68
2018-11-26T18:06:32.254Z,1008.70
2018-11-26T18:07:36.531Z,1008.70
2018-11-26T18:13:32.946Z,1008.75
2018-11-26T18:15:32.036Z,1008.76
2018-11-26T18:39:32.581Z,1008.92
2018-11-26T18:46:33.646Z,1008.92
2018-11-26T19:48:30.436Z,1009.39
2018-11-26T20:18:28.838Z,1009.60
2018-11-26T20:19:28.948Z,1009.60
2018-11-26T20:20:28.730Z,1009.61
2018-11-26T20:21:29.127Z,1009.61
2018-11-26T20:22:28.769Z,1009.60
2018-11-26T20:23:28.716Z,1009.63
2018-11-26T20:24:28.710Z,1009.64
2018-11-26T20:25:28.604Z,1009.67
2018-11-26T20:26:28.578Z,1009.68
2018-11-26T20:27:28.873Z,1009.66
2018-11-26T20:28:28.580Z,1009.67
2018-11-26T20:29:28.639Z,1009.66
2018-11-26T20:30:28.482Z,1009.66
2018-11-26T20:31:28.455Z,1009.71
2018-11-26T20:32:30.334Z,1009.76
2018-11-26T20:33:28.800Z,1009.73
2018-11-26T20:34:28.434Z,1009.74
2018-11-26T20:35:28.413Z,1009.73
2018-11-26T20:36:28.316Z,1009.75
2018-11-26T20:37:28.295Z,1009.76
2018-11-26T20:38:28.327Z,1009.73
2018-11-26T20:39:28.538Z,1009.75
2018-11-26T20:40:28.212Z,1009.76
2018-11-26T20:41:28.232Z,1009.77
2018-11-26T20:42:28.208Z,1009.77
2018-11-26T20:43:28.199Z,1009.77
2018-11-26T20:44:28.107Z,1009.78
2018-11-26T20:45:28.396Z,1009.78
2018-11-26T20:46:28.081Z,1009.79
2018-11-26T20:47:28.114Z,1009.79
2018-11-26T20:48:30.496Z,1009.80
2018-11-26T20:49:27.984Z,1009.81
2018-11-26T20:50:28.010Z,1009.80
2018-11-26T20:51:28.225Z,1009.84
2018-11-26T20:52:27.905Z,1009.87
2018-11-26T20:53:27.874Z,1009.87
2018-11-26T20:54:27.928Z,1009.87
2018-11-26T20:55:27.928Z,1009.88
2018-11-26T20:56:27.893Z,1009.86
2018-11-26T20:57:28.184Z,1009.90
2018-11-26T20:58:27.750Z,1009.91
2018-11-26T21:00:27.706Z,1009.93
2018-11-26T21:01:28.034Z,1009.92
2018-11-26T21:02:27.790Z,1009.92
2018-11-26T21:03:27.884Z,1009.91
2018-11-26T21:04:28.272Z,1009.90
2018-11-26T21:05:27.857Z,1009.89
2018-11-26T21:06:27.808Z,1009.93
2018-11-26T21:07:27.617Z,1009.91
2018-11-26T21:08:27.608Z,1009.94
2018-11-26T21:09:27.630Z,1009.97
2018-11-26T21:10:27.578Z,1009.98
2018-11-26T21:11:27.826Z,1009.97
2018-11-26T21:12:27.846Z,1010.03
2018-11-26T21:13:27.472Z,1010.01
2018-11-26T21:14:27.329Z,1010.01
2018-11-26T21:15:27.316Z,1010.08
2018-11-26T21:16:27.469Z,1010.02
2018-11-26T21:17:27.270Z,1010.10
2018-11-26T21:18:27.542Z,1010.08
2018-11-26T21:19:27.267Z,1010.11
2018-11-26T21:20:27.175Z,1010.13
2018-11-26T21:21:27.153Z,1010.15
2018-11-26T21:22:27.142Z,1010.18
2018-11-26T21:23:27.180Z,1010.17
2018-11-26T21:24:27.071Z,1010.19
2018-11-26T21:25:27.367Z,1010.19
2018-11-26T21:26:27.051Z,1010.21
2018-11-26T21:27:26.996Z,1010.22
2018-11-26T21:28:27.029Z,1010.17
2018-11-26T21:29:27.086Z,1010.20
2018-11-26T21:30:27.127Z,1010.21
2018-11-26T21:31:27.049Z,1010.21
2018-11-26T21:32:27.407Z,1010.24
2018-11-26T21:33:26.852Z,1010.23
2018-11-26T21:34:26.839Z,1010.24
2018-11-26T21:35:26.806Z,1010.25
2018-11-26T21:36:26.779Z,1010.26
2018-11-26T21:37:26.738Z,1010.26
2018-11-26T21:38:26.705Z,1010.25
2018-11-26T21:39:27.007Z,1010.28
2018-11-26T21:40:26.658Z,1010.27
2018-11-26T21:41:26.636Z,1010.27
2018-11-26T21:42:26.606Z,1010.27
2018-11-26T21:43:26.580Z,1010.24
2018-11-26T21:44:26.557Z,1010.28
2018-11-26T21:45:26.628Z,1010.24
2018-11-26T21:46:26.815Z,1010.28
2018-11-26T21:47:26.486Z,1010.25
2018-11-26T21:48:26.456Z,1010.32
2018-11-26T21:49:26.444Z,1010.30
2018-11-26T21:50:26.400Z,1010.28
2018-11-26T21:51:26.377Z,1010.28
2018-11-26T21:52:26.672Z,1010.26
2018-11-26T21:53:26.329Z,1010.28
2018-11-26T21:55:26.474Z,1010.29
2018-11-26T21:57:26.290Z,1010.34
2018-11-26T21:58:26.557Z,1010.35
2018-11-26T21:59:26.540Z,1010.33
2018-11-26T22:00:26.207Z,1010.36
2018-11-26T22:01:26.202Z,1010.37
2018-11-26T22:02:26.097Z,1010.39
2018-11-26T22:03:30.535Z,1010.37
2018-11-26T22:04:26.335Z,1010.34
2018-11-26T22:05:26.008Z,1010.37
2018-11-26T22:06:26.024Z,1010.35
2018-11-26T22:07:25.951Z,1010.33
2018-11-26T22:08:25.936Z,1010.35
2018-11-26T22:09:26.129Z,1010.34
2018-11-26T22:10:26.299Z,1010.33
2018-11-26T22:11:30.344Z,1010.35
2018-11-26T22:12:25.861Z,1010.40
2018-11-26T22:13:25.820Z,1010.37
2018-11-26T22:14:25.833Z,1010.41
2018-11-26T22:15:25.757Z,1010.40
2018-11-26T22:16:26.029Z,1010.42
2018-11-26T22:17:25.805Z,1010.47
2018-11-26T22:18:25.982Z,1010.43
2018-11-26T22:19:25.641Z,1010.43
2018-11-26T22:20:25.737Z,1010.44
2018-11-26T22:21:25.645Z,1010.47
2018-11-26T22:22:25.886Z,1010.46
2018-11-26T22:23:25.542Z,1010.45
2018-11-26T22:27:25.440Z,1010.43
2018-11-26T22:28:25.428Z,1010.43
2018-11-26T22:29:25.702Z,1010.45
2018-11-26T22:31:26.073Z,1010.48
2018-11-26T22:32:25.544Z,1010.46
2018-11-26T22:33:26.164Z,1010.49
2018-11-26T22:34:25.677Z,1010.51
2018-11-26T22:36:26.122Z,1010.53
2018-11-26T22:37:38.633Z,1010.53
2018-11-26T22:39:25.483Z,1010.52
2018-11-26T22:40:25.466Z,1010.51
2018-11-26T22:45:25.125Z,1010.47
2018-11-26T22:46:25.292Z,1010.49
2018-11-26T22:47:26.125Z,1010.48
2018-11-26T22:48:25.506Z,1010.50
2018-11-26T22:49:25.535Z,1010.49
2018-11-26T22:50:24.973Z,1010.55
2018-11-26T22:51:25.584Z,1010.55
2018-11-26T22:52:24.862Z,1010.56
2018-11-26T22:53:24.792Z,1010.57
2018-11-26T22:55:25.021Z,1010.58
2018-11-26T22:56:24.732Z,1010.57
2018-11-26T22:57:24.707Z,1010.57
2018-11-26T22:58:24.624Z,1010.56
2018-11-26T22:59:24.735Z,1010.56
2018-11-26T23:00:24.584Z,1010.53
2018-11-26T23:01:24.549Z,1010.54
2018-11-26T23:02:24.826Z,1010.60
2018-11-26T23:03:24.552Z,1010.55
2018-11-26T23:04:24.583Z,1010.55
2018-11-26T23:05:24.730Z,1010.56
2018-11-26T23:06:24.529Z,1010.56
2018-11-26T23:07:24.416Z,1010.53
2018-11-26T23:09:24.676Z,1010.56
2018-11-26T23:10:24.369Z,1010.54
2018-11-26T23:11:24.350Z,1010.52
2018-11-26T23:12:34.858Z,1010.51
2018-11-26T23:13:24.235Z,1010.50
2018-11-26T23:14:24.322Z,1010.49
2018-11-26T23:15:24.532Z,1010.44
2018-11-26T23:17:24.198Z,1010.47
2018-11-26T23:18:24.167Z,1010.48
2018-11-26T23:19:24.086Z,1010.53
2018-11-26T23:20:24.107Z,1010.53
2018-11-26T23:21:24.392Z,1010.55
2018-11-26T23:22:24.010Z,1010.57
2018-11-26T23:23:24.105Z,1010.58
2018-11-26T23:24:24.046Z,1010.59
2018-11-26T23:25:24.054Z,1010.58
2018-11-26T23:26:24.444Z,1010.61
2018-11-26T23:27:24.352Z,1010.61
2018-11-26T23:28:24.039Z,1010.61
2018-11-26T23:29:23.836Z,1010.61
2018-11-26T23:32:23.735Z,1010.62
2018-11-26T23:33:23.768Z,1010.61
2018-11-26T23:34:24.083Z,1010.63
2018-11-26T23:35:23.888Z,1010.60
2018-11-26T23:36:23.831Z,1010.64
2018-11-26T23:38:23.648Z,1010.62
2018-11-26T23:39:23.655Z,1010.62
2018-11-26T23:40:23.951Z,1010.66
2018-11-26T23:41:23.611Z,1010.67
2018-11-26T23:42:23.466Z,1010.68
2018-11-26T23:43:23.514Z,1010.65
2018-11-26T23:44:23.419Z,1010.66
2018-11-26T23:45:23.382Z,1010.65
2018-11-26T23:46:23.963Z,1010.67
2018-11-26T23:47:23.336Z,1010.64
2018-11-26T23:48:23.303Z,1010.69
2018-11-26T23:49:23.344Z,1010.64
2018-11-26T23:50:23.255Z,1010.65
2018-11-26T23:52:23.634Z,1010.64
2018-11-26T23:53:23.363Z,1010.65
2018-11-26T23:54:23.318Z,1010.68
2018-11-26T23:55:23.179Z,1010.71
2018-11-26T23:56:23.215Z,1010.74
2018-11-26T23:57:23.072Z,1010.75
2018-11-26T23:59:23.315Z,1010.73
